Terminal Aerodrome Forecast
Issued by NWS

Home | Current Version | Previous Version | Text Only | Print | Product List | Glossary On
Versions: 1 2 3 4 5 6 7 8 9 10 11 12 13 14 15 16 17 18 19 20 21 22 23 24 25 26 27 28 29
000
FTUS46 KHNX 240531
TAFMCE
TAF
KMCE 240531Z 2406/2506 00000KT P6SM SKC
     FM240900 00000KT 3SM BR SKC
     FM242000 VRB03KT 6SM HZ SKC=

USA.gov is the U.S. government's official web portal to all federal, state and local government web resources and services.